Boody, Illinois
Current Conditions -  °F | °C
As of 1:54 AM on Tuesday 21 Oct 2014 (Local Time) from KDEC Reporting Station
Clear Clear  
Wind Chill: 42°   Ceiling: Unl
Heat Index: 45°   Visibility: 10mi
Dew Point: 42°   Wind: 6mph
Humidity: 90%   Direction: 40°NE
Pressure: 30.02"   Gusts: NA
Location:  39.77°N, 89.05°W
Report Text: KDEC 210654Z AUTO 04005KT 10SM CLR 07/06 A3002 RMK AO2 SLP165 T00720056 TSNO
Loading
Personal Weather Stations






























Interactive Weather Map
Tropical Storm Tracking
New forecast layout! Learn more

10-Day Weather Forecast

Advertisements
Track Severe Weather on mobile